AirNav   Everest Fuels
 
 1462 users online  

3TA5 Blanco Landing Airport
Blanco, Texas, USA

GOING TO BLANCO?


FAA INFORMATION EFFECTIVE 03 JANUARY 2019

Location

FAA Identifier: 3TA5
Lat/Long: 30-07-20.8800N / 098-22-29.2200W
30-07.348000N / 098-22.487000W
30.1224667 / -98.3747833
(estimated)
Elevation: 1460 ft. / 445 m (estimated)
Variation: 07E (1985)
From city: 3 miles NE of BLANCO, TX
Time zone: UTC -6 (UTC -5 during Daylight Saving Time)
Zip code: 78606

Airport Operations

Airport use: Private use. Permission required prior to landing
Activation date: 03/1981
Control tower: no
ARTCC: HOUSTON CENTER
FSS: SAN ANGELO FLIGHT SERVICE STATION
Attendance: UNATNDD
Wind indicator: yes
Segmented circle: no

Airport Communications

CTAF: 122.9

Nearby radio navigation aids

VOR radial/distance  VOR name  Freq  Var
STVr098/17.9STONEWALL VORTAC113.8008E
SATr001/29.1SAN ANTONIO VORTAC116.8008E
RNDr348/36.5RANDOLPH VORTAC112.3005E

Airport Services

Runway Information

Runway 1/19

Dimensions: 3450 x 27 ft. / 1052 x 8 m
Surface: asphalt
RUNWAY 1  RUNWAY 19
Traffic pattern: leftleft

Airport Ownership and Management from official FAA records

Ownership: Privately-owned
Owner: THE LANDING P.O.A.
3238 HWY 281 N
BLANCO, TX 78606
Phone (512) 461-5158
OTR: 915-525-7792
Manager: BOARD OF DIRECTORS
3238 HWY 281 N
BLANCO, TX 78606
Phone (512) 918-8100

Airport Operational Statistics

Aircraft based on the field: 9
Single engine airplanes: 8
Helicopters: 1
    

Instrument Procedures

There are no published instrument procedures at 3TA5.

Some nearby airports with instrument procedures:

3R9 - Lakeway Airpark (24 nm NE)
T82 - Gillespie County Airport (29 nm W)
5C1 - Boerne Stage Field Airport (29 nm SW)
KHYI - San Marcos Regional Airport (30 nm SE)
KBAZ - New Braunfels Regional Airport (30 nm SE)
 
Loc | Ops | Rwys | IFR | FBO | Links
Com | Nav | Svcs | Stats | Notes
Area around 3TA5 (Blanco Landing Airport)
 
Road maps at: MapQuest Bing Google
 
Aerial photo
WARNING: Photo may not be current or correct
Aerial photo of 3TA5 (Blanco Landing Airport)
Photo taken 18-Jul-2017
looking south.

Do you have a better or more recent aerial photo of Blanco Landing Airport that you would like to share? If so, please send us your photo.

 
Sectional chart

 
Airport distance calculator
Flying to Blanco Landing Airport? Find the distance to fly.

From to 3TA5

Sunrise and sunset
Times for 23-Jan-2019
 Local
(UTC-6)
 Zulu
(UTC)
Morning civil twilight07:0413:04
Sunrise07:2913:29
Sunset18:0200:02
Evening civil twilight18:2700:27

Current date and time
Zulu (UTC)  23-Jan-2019 15:10:15
Local (UTC-6)  23-Jan-2019 09:10:15
 
METAR
KDZB 
24nm N 
231455Z AUTO 32013G21KT 10SM CLR 01/M07 A3024 RMK AO2 T00121066
KT82 
29nm W 
231455Z AUTO 34019G27KT 10SM CLR 01/M07 A3021 RMK AO2 T00131073
K5C1 
29nm SW 
231455Z AUTO 36009G18KT 10SM CLR 01/M07 A3021 RMK AO1
KBAZ 
30nm SE 
231451Z 35019G25KT 10SM FEW120 04/M07 A3021 RMK AO2 SLP230 T00391067 51025
KHYI 
30nm SE 
231456Z 33016G26KT 10SM CLR 03/M06 A3023 RMK AO2 PK WND 34026/1448 SLP236 T00331056 53024
KRYW 
31nm NE 
231455Z AUTO 32007G17KT 290V350 10SM CLR 01/M07 A3020 RMK AO2 T00051068
KSAT 
36nm S 
231451Z 35018G23KT 10SM BKN130 BKN190 04/M07 A3022 RMK AO2 PK WND 33028/1412 SLP223 T00391072 51020
KAUS 
36nm E 
231453Z 33019G25KT 10SM FEW120 SCT200 BKN300 04/M07 A3021 RMK AO2 SLP233 T00391072 51019
KATT 
37nm E 
231451Z AUTO 33012G20KT 10SM CLR 02/M08 A3023 RMK AO2 SLP240 T00221078 53015
KRND 
37nm S 
231456Z AUTO 34012G21KT 10SM SCT130 BKN160 04/M08 A3022 RMK AO2 PK WND 35028/07 SLP234 T00391076 52022 $
TAF
KSAT 
36nm S 
231132Z 2312/2418 33014G24KT P6SM OVC100 FM231400 33015G25KT P6SM FEW150 FM232200 33008KT P6SM SKC FM240100 VRB03KT P6SM SKC FM241600 19007KT P6SM SKC
KAUS 
36nm E 
231132Z 2312/2418 34020G30KT P6SM BKN100 FM231400 35016G26KT P6SM FEW150 FM232200 33010KT P6SM SKC FM240100 VRB03KT P6SM SKC FM241600 19007KT P6SM SKC
KRND 
37nm S 
231108Z 2311/2416 35015G20KT 9999 BKN085 510055 QNH3007INS TEMPO 2311/2318 35020G30KT BECMG 2317/2318 34012G20KT 9999 SKC 510053 QNH3010INS BECMG 2323/2324 32006KT 9999 SKC QNH3010INS BECMG 2404/2405 19005KT 9999 SKC QNH3005INS TX13/2320Z TN03/2410Z
NOTAMs
Click for the latest NOTAMs
NOTAMs are issued by the DoD/FAA and will open in a separate window not controlled by AirNav.

 

 
 

Would you like to see your business listed on this page?

 If your business provides an interesting product or service to pilots, flight crews, aircraft, or users of the Blanco Landing Airport, you should consider listing it here.  To start the listing process, click on the button below
 
Add a business
 

Other Pages about Blanco Landing Airport

Update a link
 
Copyright © AirNav, LLC. All rights reserved. Privacy Policy  Contact